createdAt,value
2017-06-14T00:00:33.417Z,0
2017-06-14T00:01:19.124Z,0
2017-06-14T00:02:19.148Z,0
2017-06-14T00:03:33.851Z,0
2017-06-14T00:05:19.218Z,0
2017-06-14T00:06:19.250Z,0
2017-06-14T00:07:19.270Z,0
2017-06-14T00:08:33.606Z,0
2017-06-14T00:09:19.315Z,0
2017-06-14T00:10:19.338Z,0
2017-06-14T00:11:19.366Z,0
2017-06-14T00:12:19.383Z,0
2017-06-14T00:13:19.409Z,0
2017-06-14T00:14:19.430Z,0
2017-06-14T00:15:19.457Z,0
2017-06-14T00:16:19.478Z,0
2017-06-14T00:18:19.528Z,0
2017-06-14T00:19:19.552Z,0
2017-06-14T00:20:34.189Z,0
2017-06-14T00:22:34.238Z,0
2017-06-14T00:23:19.643Z,0
2017-06-14T00:24:34.293Z,0
2017-06-14T00:26:34.388Z,0
2017-06-14T00:27:19.735Z,0
2017-06-14T00:28:19.760Z,0
2017-06-14T00:29:19.783Z,0
2017-06-14T00:30:19.811Z,0
2017-06-14T00:31:19.831Z,0
2017-06-14T00:32:20.156Z,0
2017-06-14T00:33:19.887Z,0
2017-06-14T00:34:19.899Z,0
2017-06-14T00:35:34.543Z,0
2017-06-14T00:36:19.951Z,0
2017-06-14T00:37:34.589Z,0
2017-06-14T00:38:19.995Z,0
2017-06-14T00:39:34.639Z,0
2017-06-14T00:41:20.065Z,0
2017-06-14T00:42:20.095Z,0
2017-06-14T00:43:20.116Z,0
2017-06-14T00:44:20.137Z,0
2017-06-14T00:45:20.159Z,0
2017-06-14T00:46:20.184Z,0
2017-06-14T00:47:20.207Z,0
2017-06-14T00:48:20.234Z,0
2017-06-14T00:49:20.254Z,0
2017-06-14T00:50:34.899Z,0
2017-06-14T00:51:34.614Z,0
2017-06-14T00:52:20.331Z,0
2017-06-14T00:53:20.347Z,0
2017-06-14T00:54:20.370Z,0
2017-06-14T00:55:20.393Z,0
2017-06-14T00:57:20.440Z,0
2017-06-14T00:58:20.466Z,0
2017-06-14T01:00:19.904Z,0
2017-06-14T01:01:20.537Z,0
2017-06-14T01:02:20.557Z,0
2017-06-14T01:03:20.580Z,0
2017-06-14T01:04:20.303Z,0
2017-06-14T01:05:20.323Z,0
2017-06-14T01:06:20.649Z,0
2017-06-14T01:07:20.674Z,0
2017-06-14T01:08:35.313Z,0
2017-06-14T01:09:20.720Z,0
2017-06-14T01:10:20.743Z,0
2017-06-14T01:11:35.382Z,0
2017-06-14T01:13:20.511Z,0
2017-06-14T01:14:20.836Z,0
2017-06-14T01:15:20.857Z,0
2017-06-14T01:16:20.885Z,0
2017-06-14T01:17:20.906Z,0
2017-06-14T01:18:20.929Z,0
2017-06-14T01:19:20.951Z,0
2017-06-14T01:20:20.978Z,0
2017-06-14T01:21:21.000Z,0
2017-06-14T01:22:20.727Z,0
2017-06-14T01:23:21.043Z,0
2017-06-14T01:24:35.698Z,0
2017-06-14T01:25:35.708Z,0
2017-06-14T01:27:35.757Z,0
2017-06-14T01:28:21.185Z,0
2017-06-14T01:29:21.182Z,0
2017-06-14T01:30:21.206Z,0
2017-06-14T01:31:21.229Z,0
2017-06-14T01:32:21.256Z,0
2017-06-14T01:33:21.274Z,0
2017-06-14T01:34:21.353Z,0
2017-06-14T01:35:21.336Z,0
2017-06-14T01:36:21.345Z,0
2017-06-14T01:37:21.382Z,0
2017-06-14T01:38:36.009Z,0
2017-06-14T01:39:21.427Z,0
2017-06-14T01:40:21.443Z,0
2017-06-14T01:41:36.078Z,0
2017-06-14T01:42:21.483Z,0
2017-06-14T01:43:36.123Z,0
2017-06-14T01:44:21.528Z,0
2017-06-14T01:45:20.947Z,0
2017-06-14T01:46:21.581Z,0
2017-06-14T01:47:21.602Z,0
2017-06-14T01:48:21.625Z,0
2017-06-14T01:49:21.646Z,0
2017-06-14T01:50:21.370Z,4
2017-06-14T01:51:21.698Z,4
2017-06-14T01:52:36.333Z,4
2017-06-14T01:53:36.356Z,0
2017-06-14T01:54:36.074Z,0
2017-06-14T01:55:36.400Z,4
2017-06-14T01:56:21.820Z,4
2017-06-14T01:57:21.833Z,4
2017-06-14T01:58:21.860Z,0
2017-06-14T01:59:36.494Z,4
2017-06-14T02:00:21.598Z,4
2017-06-14T02:02:21.642Z,4
2017-06-14T02:03:21.668Z,8
2017-06-14T02:04:21.993Z,8
2017-06-14T02:05:21.709Z,4
2017-06-14T02:06:21.734Z,8
2017-06-14T02:07:22.062Z,8
2017-06-14T02:08:22.133Z,8
2017-06-14T02:09:22.104Z,12
2017-06-14T02:10:22.129Z,16
2017-06-14T02:11:22.154Z,12
2017-06-14T02:14:36.842Z,20
2017-06-14T02:15:22.244Z,24
2017-06-14T02:18:22.315Z,32
2017-06-14T02:19:21.728Z,36
2017-06-14T02:20:22.362Z,40
2017-06-14T02:21:22.383Z,48
2017-06-14T02:22:22.410Z,52
2017-06-14T02:23:22.428Z,52
2017-06-14T02:24:22.453Z,60
2017-06-14T02:25:37.090Z,68
2017-06-14T02:26:22.501Z,72
2017-06-14T02:27:22.517Z,80
2017-06-14T02:28:22.240Z,88
2017-06-14T02:29:22.621Z,96
2017-06-14T02:30:22.594Z,108
2017-06-14T02:31:22.612Z,116
2017-06-14T02:32:22.639Z,128
2017-06-14T02:33:22.681Z,140
2017-06-14T02:35:22.703Z,164
2017-06-14T02:36:22.726Z,180
2017-06-14T02:37:22.752Z,192
2017-06-14T02:38:22.468Z,204
2017-06-14T02:39:22.795Z,220
2017-06-14T02:40:22.819Z,240
2017-06-14T02:41:22.843Z,256
2017-06-14T02:42:22.862Z,272
2017-06-14T02:44:22.910Z,308
2017-06-14T02:45:22.928Z,332
2017-06-14T02:46:37.570Z,360
2017-06-14T02:47:22.975Z,376
2017-06-14T02:48:23.001Z,400
2017-06-14T02:49:23.022Z,420
2017-06-14T02:50:23.045Z,448
2017-06-14T02:51:22.767Z,476
2017-06-14T02:52:23.096Z,504
2017-06-14T02:53:23.112Z,536
2017-06-14T02:54:23.135Z,568
2017-06-14T02:55:23.209Z,604
2017-06-14T02:56:37.495Z,644
2017-06-14T02:57:37.821Z,680
2017-06-14T02:58:37.845Z,716
2017-06-14T02:59:22.948Z,744
2017-06-14T03:00:37.893Z,788
2017-06-14T03:01:23.301Z,820
2017-06-14T03:02:37.939Z,864
2017-06-14T03:03:23.340Z,896
2017-06-14T03:05:23.387Z,976
2017-06-14T03:06:23.111Z,1016
2017-06-14T03:07:23.430Z,1056
2017-06-14T03:08:23.507Z,1100
2017-06-14T03:09:23.480Z,1136
2017-06-14T03:10:23.556Z,1176
2017-06-14T03:11:23.220Z,1224
2017-06-14T03:12:23.546Z,1268
2017-06-14T03:13:38.186Z,1328
2017-06-14T03:14:23.591Z,1360
2017-06-14T03:16:23.334Z,1452
2017-06-14T03:17:23.660Z,1500
2017-06-14T03:18:38.301Z,1564
2017-06-14T03:21:23.757Z,1668
2017-06-14T03:22:23.775Z,1680
2017-06-14T03:23:23.800Z,1708
2017-06-14T03:24:23.823Z,1792
2017-06-14T03:25:23.843Z,1900
2017-06-14T03:26:23.863Z,2004
2017-06-14T03:27:23.888Z,2100
2017-06-14T03:28:23.909Z,2172
2017-06-14T03:29:23.934Z,2228
2017-06-14T03:30:38.572Z,2292
2017-06-14T03:32:24.002Z,2404
2017-06-14T03:33:23.721Z,2448
2017-06-14T03:34:38.665Z,2556
2017-06-14T03:36:24.099Z,2708
2017-06-14T03:38:24.143Z,2844
2017-06-14T03:39:24.162Z,2928
2017-06-14T03:40:24.184Z,2876
2017-06-14T03:41:24.207Z,2976
2017-06-14T03:42:24.232Z,3092
2017-06-14T03:43:38.872Z,3180
2017-06-14T03:44:24.275Z,3268
2017-06-14T03:45:38.917Z,3216
2017-06-14T03:46:24.323Z,3304
2017-06-14T03:47:38.662Z,3324
2017-06-14T03:48:24.370Z,3416
2017-06-14T03:49:39.012Z,3504
2017-06-14T03:50:24.115Z,3548
2017-06-14T03:51:24.438Z,3644
2017-06-14T03:52:24.462Z,3700
2017-06-14T03:53:24.484Z,3764
2017-06-14T03:54:24.507Z,4012
2017-06-14T03:55:24.527Z,4636
2017-06-14T03:56:24.248Z,5524
2017-06-14T03:57:24.580Z,5404
2017-06-14T03:58:24.598Z,4600
2017-06-14T03:59:24.323Z,5032
2017-06-14T04:00:24.694Z,5476
2017-06-14T04:01:24.367Z,5056
2017-06-14T04:02:24.689Z,4848
2017-06-14T04:04:24.736Z,4668
2017-06-14T04:05:24.759Z,4856
2017-06-14T04:06:24.788Z,4828
2017-06-14T04:07:24.808Z,6684
2017-06-14T04:08:24.830Z,11604
2017-06-14T04:09:24.853Z,22464
2017-06-14T04:10:24.874Z,38208
2017-06-14T04:11:24.899Z,46944
2017-06-14T04:12:39.543Z,39648
2017-06-14T04:13:24.946Z,49760
2017-06-14T04:14:24.969Z,49600
2017-06-14T04:15:24.996Z,52640
2017-06-14T04:16:25.019Z,53536
2017-06-14T04:17:25.045Z,52672
2017-06-14T04:18:39.684Z,53856
2017-06-14T04:19:25.096Z,54048
2017-06-14T04:20:39.736Z,52640
2017-06-14T04:21:39.761Z,53728
2017-06-14T04:22:25.178Z,54464
2017-06-14T04:23:25.199Z,56864
2017-06-14T04:24:25.222Z,59744
2017-06-14T04:25:25.254Z,60352
2017-06-14T04:26:24.979Z,60480
2017-06-14T04:27:25.306Z,57888
2017-06-14T04:28:25.333Z,60256
2017-06-14T04:29:25.358Z,62912
2017-06-14T04:30:25.389Z,65024
2017-06-14T04:31:25.415Z,65120
2017-06-14T04:32:25.448Z,63392
2017-06-14T04:33:25.470Z,60864
2017-06-14T04:34:25.503Z,63104
2017-06-14T04:35:40.198Z,64512
2017-06-14T04:36:25.559Z,66752
2017-06-14T04:37:39.906Z,65312
2017-06-14T04:38:25.620Z,64032
2017-06-14T04:39:25.648Z,42208
2017-06-14T04:40:25.429Z,67584
2017-06-14T04:41:25.709Z,67360
2017-06-14T04:42:25.737Z,66976
2017-06-14T04:43:25.767Z,68608
2017-06-14T04:44:25.800Z,68352
2017-06-14T04:45:25.829Z,69664
2017-06-14T04:46:40.175Z,67744
2017-06-14T04:47:25.891Z,65440
2017-06-14T04:48:40.538Z,66944
2017-06-14T04:49:25.955Z,67232
2017-06-14T04:50:40.603Z,70240
2017-06-14T04:51:26.014Z,71872
2017-06-14T04:52:26.046Z,70144
2017-06-14T04:53:40.695Z,72192
2017-06-14T04:54:26.107Z,71200
2017-06-14T04:55:26.143Z,68064
2017-06-14T04:56:26.174Z,78112
2017-06-14T04:57:26.210Z,77984
2017-06-14T04:58:26.238Z,78336
2017-06-14T04:59:26.269Z,76960
2017-06-14T05:00:27.062Z,79392
2017-06-14T05:01:26.335Z,77280
2017-06-14T05:02:40.988Z,77216
2017-06-14T05:03:26.403Z,77408
2017-06-14T05:04:41.053Z,82848
2017-06-14T05:05:26.467Z,80160
2017-06-14T05:06:26.499Z,82016
2017-06-14T05:07:26.535Z,79488
2017-06-14T05:08:26.566Z,79200
2017-06-14T05:09:41.220Z,80416
2017-06-14T05:10:26.633Z,79872
2017-06-14T05:11:26.668Z,81984
2017-06-14T05:12:26.701Z,80288
2017-06-14T05:13:26.429Z,84320
2017-06-14T05:14:26.466Z,85216
2017-06-14T05:15:26.496Z,83360
2017-06-14T05:16:41.459Z,85312
2017-06-14T05:17:26.874Z,85088
2017-06-14T05:18:26.903Z,80384
2017-06-14T05:19:26.943Z,82176
2017-06-14T05:20:26.669Z,82784
2017-06-14T05:22:41.659Z,88384
2017-06-14T05:23:27.074Z,88000
2017-06-14T05:24:41.728Z,90048
2017-06-14T05:25:27.143Z,90048
2017-06-14T05:28:27.247Z,92544
2017-06-14T05:29:27.290Z,92800
2017-06-14T05:30:27.314Z,93216
2017-06-14T05:31:27.357Z,93792
2017-06-14T05:32:27.385Z,90784
2017-06-14T05:33:27.418Z,89824
2017-06-14T05:34:42.077Z,91808
2017-06-14T05:35:42.116Z,95904
2017-06-14T05:36:27.528Z,92896
2017-06-14T05:37:27.558Z,88704
2017-06-14T05:38:27.596Z,88544
2017-06-14T05:39:27.647Z,89376
2017-06-14T05:40:27.665Z,91584
2017-06-14T05:41:27.704Z,92608
2017-06-14T05:42:27.738Z,94976
2017-06-14T05:43:27.771Z,94624
2017-06-14T05:44:27.553Z,94144
2017-06-14T05:45:27.843Z,97216
2017-06-14T05:46:27.880Z,40768
2017-06-14T05:47:27.913Z,98080
2017-06-14T05:48:27.961Z,91584
2017-06-14T05:49:27.981Z,89696
2017-06-14T05:50:28.019Z,93824
2017-06-14T05:51:42.674Z,96160
2017-06-14T05:52:27.785Z,31296
2017-06-14T05:53:28.128Z,87936
2017-06-14T05:56:42.854Z,85184
2017-06-14T05:57:28.270Z,93664
2017-06-14T05:58:28.015Z,96864
2017-06-14T06:00:43.145Z,88960
2017-06-14T06:01:28.409Z,97408
2017-06-14T06:02:43.071Z,98112
2017-06-14T06:03:28.481Z,73472
2017-06-14T06:04:28.517Z,83584
2017-06-14T06:05:42.872Z,88000
2017-06-14T06:06:28.587Z,88032
2017-06-14T06:07:28.625Z,89120
2017-06-14T06:08:28.660Z,93408
2017-06-14T06:09:28.748Z,88352
2017-06-14T06:10:28.732Z,86912
2017-06-14T06:11:28.803Z,90080
2017-06-14T06:12:43.424Z,84480
2017-06-14T06:13:28.838Z,76480
2017-06-14T06:14:28.573Z,93120
2017-06-14T06:15:28.914Z,92800
2017-06-14T06:16:28.951Z,92704
2017-06-14T06:17:28.981Z,92512
2017-06-14T06:18:28.714Z,92640
2017-06-14T06:19:43.679Z,94016
2017-06-14T06:20:29.122Z,95104
2017-06-14T06:21:29.152Z,94464
2017-06-14T06:22:43.803Z,93824
2017-06-14T06:23:29.233Z,94304
2017-06-14T06:24:43.873Z,94176
2017-06-14T06:25:29.278Z,95072
2017-06-14T06:26:29.335Z,92992
2017-06-14T06:27:29.364Z,91424
2017-06-14T06:28:44.005Z,86112
2017-06-14T06:29:29.429Z,88160
2017-06-14T06:30:29.509Z,92416
2017-06-14T06:31:29.501Z,90272
2017-06-14T06:32:29.594Z,90560
2017-06-14T06:33:29.587Z,86528
2017-06-14T06:34:29.629Z,85408
2017-06-14T06:35:44.281Z,83840
2017-06-14T06:36:29.702Z,84672
2017-06-14T06:37:29.744Z,81632
2017-06-14T06:38:44.385Z,77184
2017-06-14T06:39:44.421Z,77152
2017-06-14T06:40:29.851Z,81600
2017-06-14T06:41:29.869Z,83392
2017-06-14T06:42:29.948Z,85152
2017-06-14T06:43:29.956Z,87904
2017-06-14T06:44:44.610Z,82464
2017-06-14T06:45:30.028Z,82880
2017-06-14T06:46:30.062Z,80000
2017-06-14T06:47:30.098Z,81216
2017-06-14T06:48:30.146Z,82976
2017-06-14T06:49:30.155Z,84480
2017-06-14T06:50:30.261Z,82912
2017-06-14T06:51:30.249Z,67712
2017-06-14T06:52:30.271Z,74304
2017-06-14T06:53:30.321Z,65568
2017-06-14T06:54:30.359Z,70304
2017-06-14T06:55:30.388Z,72992
2017-06-14T06:56:30.442Z,67264
2017-06-14T06:57:45.086Z,76448
2017-06-14T06:58:30.494Z,70016
2017-06-14T06:59:45.156Z,76800
2017-06-14T07:00:30.679Z,76512
2017-06-14T07:01:30.598Z,77344
2017-06-14T07:02:30.640Z,81120
2017-06-14T07:03:30.670Z,69984
2017-06-14T07:04:30.717Z,50304
2017-06-14T07:05:30.744Z,80672
2017-06-14T07:06:30.782Z,83072
2017-06-14T07:07:30.819Z,46432
2017-06-14T07:08:44.863Z,18752
2017-06-14T07:09:30.898Z,77696
2017-06-14T07:10:30.943Z,82944
2017-06-14T07:11:30.973Z,81920
2017-06-14T07:12:31.061Z,76832
2017-06-14T07:13:31.044Z,72416
2017-06-14T07:14:31.078Z,78624
2017-06-14T07:15:30.813Z,28864
2017-06-14T07:16:31.177Z,24832
2017-06-14T07:17:45.813Z,76032
2017-06-14T07:18:31.278Z,73600
2017-06-14T07:19:31.262Z,71136
2017-06-14T07:20:30.994Z,63072
2017-06-14T07:21:31.325Z,63232
2017-06-14T07:22:31.369Z,63648
2017-06-14T07:23:31.101Z,66816
2017-06-14T07:24:31.136Z,64896
2017-06-14T07:25:31.483Z,64160
2017-06-14T07:26:31.507Z,73152
2017-06-14T07:27:31.241Z,74912
2017-06-14T07:28:45.900Z,30368
2017-06-14T07:29:31.625Z,70656
2017-06-14T07:30:46.283Z,66304
2017-06-14T07:31:46.331Z,71872
2017-06-14T07:32:31.740Z,60032
2017-06-14T07:34:31.797Z,69280
2017-06-14T07:35:31.530Z,68992
2017-06-14T07:36:31.869Z,71328
2017-06-14T07:37:31.905Z,68000
2017-06-14T07:38:31.948Z,61664
2017-06-14T07:39:31.978Z,64448
2017-06-14T07:40:46.635Z,57632
2017-06-14T07:41:32.049Z,69760
2017-06-14T07:42:32.088Z,71840
2017-06-14T07:43:32.123Z,66784
2017-06-14T07:45:31.896Z,65344
2017-06-14T07:46:32.231Z,65568
2017-06-14T07:47:46.584Z,64672
2017-06-14T07:48:32.308Z,59424
2017-06-14T07:49:32.353Z,61888
2017-06-14T07:50:32.091Z,64256
2017-06-14T07:51:32.420Z,65344
2017-06-14T07:53:47.109Z,14336
2017-06-14T07:54:32.536Z,64544
2017-06-14T07:55:32.570Z,65792
2017-06-14T07:56:32.604Z,43840
2017-06-14T07:57:32.646Z,60960
2017-06-14T07:58:32.694Z,69024
2017-06-14T07:59:32.730Z,21824
2017-06-14T08:00:32.958Z,17664
2017-06-14T08:01:32.843Z,18880
2017-06-14T08:03:47.166Z,20512
2017-06-14T08:05:32.924Z,17344
2017-06-14T08:06:32.958Z,65792
2017-06-14T08:07:33.007Z,26336
2017-06-14T08:08:33.024Z,50400
2017-06-14T08:09:47.681Z,17792
2017-06-14T08:10:47.711Z,13192
2017-06-14T08:11:33.137Z,12464
2017-06-14T08:12:33.181Z,27264
2017-06-14T08:13:33.224Z,26560
2017-06-14T08:14:33.239Z,23904
2017-06-14T08:15:32.977Z,27840
2017-06-14T08:16:33.326Z,27616
2017-06-14T08:17:33.360Z,24448
2017-06-14T08:18:33.071Z,12428
2017-06-14T08:19:47.722Z,25056
2017-06-14T08:20:33.451Z,15952
2017-06-14T08:21:33.495Z,15800
2017-06-14T08:23:33.563Z,14224
2017-06-14T08:24:48.206Z,27232
2017-06-14T08:25:33.622Z,26432
2017-06-14T08:26:33.663Z,26944
2017-06-14T08:27:33.684Z,22272
2017-06-14T08:28:33.722Z,15388
2017-06-14T08:29:48.357Z,13792
2017-06-14T08:30:48.408Z,14952
2017-06-14T08:31:48.125Z,13320
2017-06-14T08:32:33.898Z,13068
2017-06-14T08:33:33.891Z,12196
2017-06-14T08:34:48.533Z,17952
2017-06-14T08:35:33.992Z,14572
2017-06-14T08:36:33.983Z,22016
2017-06-14T08:37:33.715Z,24672
2017-06-14T08:38:48.671Z,22016
2017-06-14T08:39:34.083Z,11284
2017-06-14T08:40:34.118Z,10420
2017-06-14T08:41:34.158Z,11028
2017-06-14T08:42:34.238Z,12416
2017-06-14T08:43:34.217Z,23072
2017-06-14T08:44:34.244Z,22240
2017-06-14T08:45:34.280Z,14268
2017-06-14T08:46:34.019Z,23904
2017-06-14T08:47:48.963Z,13368
2017-06-14T08:48:34.375Z,13192
2017-06-14T08:49:34.393Z,21856
2017-06-14T08:50:34.422Z,13132
2017-06-14T08:52:34.493Z,10868
2017-06-14T08:53:34.521Z,11028
2017-06-14T08:54:34.555Z,20576
2017-06-14T08:55:34.594Z,20512
2017-06-14T08:56:34.620Z,11036
2017-06-14T08:57:34.651Z,11224
2017-06-14T08:58:34.383Z,13276
2017-06-14T08:59:34.713Z,23104
2017-06-14T09:00:34.748Z,23552
2017-06-14T09:01:34.783Z,23296
2017-06-14T09:02:34.813Z,20320
2017-06-14T09:04:34.272Z,14012
2017-06-14T09:05:34.909Z,9968
2017-06-14T09:06:49.558Z,10428
2017-06-14T09:07:34.973Z,10552
2017-06-14T09:08:35.008Z,9812
2017-06-14T09:09:35.032Z,9376
2017-06-14T09:10:35.068Z,9588
2017-06-14T09:11:35.100Z,10336
2017-06-14T09:12:34.828Z,19936
2017-06-14T09:13:35.164Z,14764
2017-06-14T09:14:34.890Z,12156
2017-06-14T09:15:49.897Z,12604
2017-06-14T09:16:35.256Z,13196
2017-06-14T09:17:34.992Z,14876
2017-06-14T09:18:35.324Z,12292
2017-06-14T09:20:35.385Z,22080
2017-06-14T09:21:35.419Z,12708
2017-06-14T09:22:50.066Z,20448
2017-06-14T09:23:35.482Z,11416
2017-06-14T09:25:35.543Z,10680
2017-06-14T09:26:35.570Z,11300
2017-06-14T09:27:35.603Z,10288
2017-06-14T09:28:50.257Z,19680
2017-06-14T09:29:35.661Z,19584
2017-06-14T09:30:35.727Z,19488
2017-06-14T09:31:35.773Z,19648
2017-06-14T09:32:50.377Z,19968
2017-06-14T09:33:50.406Z,13888
2017-06-14T09:34:50.439Z,20160
2017-06-14T09:35:50.472Z,11096
2017-06-14T09:36:35.880Z,17952
2017-06-14T09:38:50.563Z,10764
2017-06-14T09:39:35.674Z,11024
2017-06-14T09:40:36.011Z,11208
2017-06-14T09:41:35.788Z,11036
2017-06-14T09:42:36.071Z,16880
2017-06-14T09:43:50.725Z,18336
2017-06-14T09:44:35.829Z,17280
2017-06-14T09:45:36.167Z,16528
2017-06-14T09:46:36.242Z,15956
2017-06-14T09:47:50.845Z,16176
2017-06-14T09:48:50.572Z,15184
2017-06-14T09:49:36.293Z,14180
2017-06-14T09:50:36.323Z,8428
2017-06-14T09:52:36.382Z,8168
2017-06-14T09:53:36.411Z,8488
2017-06-14T09:54:50.757Z,11248
2017-06-14T09:56:36.551Z,13332
2017-06-14T09:58:36.563Z,7604
2017-06-14T09:59:36.598Z,7676
2017-06-14T10:00:36.931Z,13228
2017-06-14T10:01:36.658Z,7632
2017-06-14T10:02:36.735Z,8148
2017-06-14T10:03:36.717Z,14640
2017-06-14T10:04:51.365Z,15448
2017-06-14T10:05:36.826Z,15420
2017-06-14T10:06:36.806Z,15116
2017-06-14T10:07:51.457Z,14992
2017-06-14T10:08:36.868Z,15080
2017-06-14T10:09:51.525Z,15560
2017-06-14T10:11:36.959Z,15748
2017-06-14T10:12:36.990Z,15920
2017-06-14T10:13:37.021Z,15456
2017-06-14T10:14:37.050Z,14976
2017-06-14T10:15:37.078Z,14744
2017-06-14T10:16:37.159Z,13864
2017-06-14T10:17:36.837Z,9176
2017-06-14T10:18:36.869Z,14092
2017-06-14T10:19:37.204Z,13496
2017-06-14T10:20:36.931Z,13476
2017-06-14T10:22:36.991Z,12960
2017-06-14T10:23:37.024Z,9860
2017-06-14T10:24:37.359Z,13608
2017-06-14T10:26:37.117Z,14016
2017-06-14T10:27:37.505Z,13472
2017-06-14T10:28:37.179Z,13008
2017-06-14T10:29:37.511Z,12508
2017-06-14T10:30:37.541Z,11392
2017-06-14T10:31:37.274Z,11628
2017-06-14T10:32:37.608Z,11404
2017-06-14T10:33:37.635Z,11288
2017-06-14T10:34:52.287Z,11556
2017-06-14T10:35:37.694Z,6592
2017-06-14T10:36:37.727Z,5952
2017-06-14T10:37:37.758Z,12104
2017-06-14T10:38:37.790Z,12348
2017-06-14T10:39:52.438Z,12324
2017-06-14T10:40:37.541Z,12292
2017-06-14T10:41:52.496Z,12420
2017-06-14T10:43:37.937Z,12500
2017-06-14T10:44:37.969Z,12544
2017-06-14T10:45:37.998Z,12376
2017-06-14T10:46:38.033Z,12336
2017-06-14T10:47:38.061Z,8324
2017-06-14T10:48:38.089Z,10940
2017-06-14T10:49:37.513Z,13088
2017-06-14T10:50:38.159Z,12908
2017-06-14T10:51:38.178Z,12824
2017-06-14T10:52:38.214Z,12860
2017-06-14T10:53:52.911Z,13180
2017-06-14T10:54:52.892Z,13100
2017-06-14T10:55:52.616Z,13216
2017-06-14T10:56:38.333Z,13452
2017-06-14T10:57:52.980Z,13676
2017-06-14T10:58:38.394Z,13636
2017-06-14T10:59:38.474Z,13364
2017-06-14T11:00:38.503Z,13396
2017-06-14T11:01:38.482Z,13096
2017-06-14T11:02:38.514Z,12164
2017-06-14T11:03:38.844Z,11940
2017-06-14T11:04:38.579Z,11624
2017-06-14T11:05:53.222Z,6088
2017-06-14T11:06:53.251Z,11500
2017-06-14T11:07:38.660Z,11356
2017-06-14T11:08:53.308Z,10540
2017-06-14T11:09:38.753Z,11356
2017-06-14T11:10:53.367Z,12136
2017-06-14T11:11:38.780Z,12120
2017-06-14T11:12:38.810Z,12060
2017-06-14T11:13:53.457Z,12064
2017-06-14T11:14:38.866Z,11688
2017-06-14T11:15:38.903Z,11560
2017-06-14T11:16:38.928Z,8960
2017-06-14T11:18:39.293Z,9912
2017-06-14T11:19:39.026Z,11404
2017-06-14T11:20:53.667Z,10752
2017-06-14T11:21:39.090Z,11048
2017-06-14T11:22:39.125Z,11368
2017-06-14T11:24:39.183Z,11588
2017-06-14T11:25:39.205Z,11528
2017-06-14T11:26:39.252Z,10500
2017-06-14T11:27:39.273Z,9788
2017-06-14T11:28:53.915Z,8884
2017-06-14T11:29:53.945Z,10736
2017-06-14T11:30:39.346Z,10724
2017-06-14T11:31:39.368Z,11332
2017-06-14T11:32:39.400Z,10732
2017-06-14T11:33:39.439Z,10960
2017-06-14T11:34:54.093Z,11224
2017-06-14T11:35:39.488Z,11076
2017-06-14T11:36:39.522Z,10884
2017-06-14T11:37:39.547Z,10644
2017-06-14T11:38:39.575Z,10500
2017-06-14T11:39:39.305Z,10300
2017-06-14T11:40:39.659Z,10084
2017-06-14T11:41:54.298Z,6348
2017-06-14T11:42:39.703Z,6500
2017-06-14T11:43:39.724Z,9416
2017-06-14T11:44:54.379Z,6312
2017-06-14T11:46:39.818Z,8644
2017-06-14T11:47:39.841Z,8512
2017-06-14T11:48:39.901Z,6168
2017-06-14T11:49:39.919Z,5528
2017-06-14T11:50:39.933Z,6852
2017-06-14T11:51:40.009Z,6416
2017-06-14T11:52:39.988Z,8132
2017-06-14T11:53:40.017Z,8088
2017-06-14T11:54:40.049Z,8016
2017-06-14T11:55:40.077Z,5700
2017-06-14T11:56:40.101Z,7268
2017-06-14T11:57:39.827Z,8228
2017-06-14T11:58:40.160Z,7412
2017-06-14T11:59:40.188Z,8592
2017-06-14T12:00:39.919Z,8800
2017-06-14T12:01:40.252Z,8824
2017-06-14T12:02:40.282Z,8520
2017-06-14T12:03:40.002Z,8252
2017-06-14T12:04:40.386Z,9236
2017-06-14T12:05:40.363Z,9244
2017-06-14T12:06:40.087Z,9508
2017-06-14T12:07:40.481Z,10216
2017-06-14T12:08:40.462Z,10640
2017-06-14T12:09:40.482Z,10512
2017-06-14T12:10:40.506Z,10608
2017-06-14T12:11:55.159Z,10552
2017-06-14T12:12:40.572Z,10464
2017-06-14T12:13:39.992Z,10136
2017-06-14T12:14:40.323Z,9536
2017-06-14T12:15:40.350Z,9184
2017-06-14T12:16:55.300Z,8716
2017-06-14T12:17:40.105Z,9132
2017-06-14T12:18:40.442Z,9640
2017-06-14T12:19:40.784Z,10248
2017-06-14T12:20:40.813Z,9432
2017-06-14T12:21:40.831Z,9416
2017-06-14T12:22:40.864Z,9588
2017-06-14T12:23:40.891Z,9556
2017-06-14T12:24:40.914Z,9356
2017-06-14T12:25:40.945Z,9032
2017-06-14T12:26:40.370Z,8484
2017-06-14T12:27:41.004Z,8428
2017-06-14T12:28:41.040Z,8736
2017-06-14T12:29:41.058Z,8504
2017-06-14T12:31:40.812Z,8244
2017-06-14T12:32:55.765Z,8412
2017-06-14T12:33:40.882Z,8404
2017-06-14T12:34:40.600Z,8924
2017-06-14T12:35:40.930Z,9340
2017-06-14T12:36:41.265Z,8680
2017-06-14T12:37:41.294Z,8708
2017-06-14T12:38:41.320Z,8040
2017-06-14T12:39:55.971Z,8768
2017-06-14T12:40:41.074Z,7596
2017-06-14T12:41:41.404Z,8272
2017-06-14T12:42:41.435Z,9096
2017-06-14T12:43:41.467Z,8732
2017-06-14T12:44:56.115Z,7848
2017-06-14T12:45:41.526Z,8316
2017-06-14T12:46:41.248Z,8408
2017-06-14T12:47:41.583Z,8384
2017-06-14T12:48:55.923Z,8644
2017-06-14T12:49:41.637Z,8592
2017-06-14T12:50:41.669Z,8636
2017-06-14T12:51:41.701Z,8460
2017-06-14T12:52:41.421Z,8268
2017-06-14T12:53:41.450Z,8092
2017-06-14T12:54:41.784Z,7768
2017-06-14T12:55:41.811Z,7488
2017-06-14T12:56:41.837Z,7156
2017-06-14T12:57:41.869Z,7224
2017-06-14T12:58:41.946Z,7080
2017-06-14T12:59:56.544Z,5812
2017-06-14T13:00:56.573Z,6756
2017-06-14T13:01:56.603Z,6600
2017-06-14T13:02:42.012Z,6340
2017-06-14T13:03:42.039Z,6380
2017-06-14T13:04:56.386Z,6344
2017-06-14T13:05:42.101Z,6388
2017-06-14T13:06:42.155Z,6424
2017-06-14T13:07:42.455Z,6372
2017-06-14T13:08:41.882Z,6332
2017-06-14T13:09:42.214Z,6292
2017-06-14T13:10:41.936Z,6208
2017-06-14T13:11:42.271Z,6176
2017-06-14T13:12:42.297Z,6252
2017-06-14T13:13:42.364Z,6192
2017-06-14T13:14:42.355Z,6192
2017-06-14T13:15:57.003Z,6204
2017-06-14T13:16:42.415Z,6216
2017-06-14T13:17:42.443Z,6188
2017-06-14T13:18:42.467Z,6160
2017-06-14T13:19:57.119Z,6132
2017-06-14T13:20:42.531Z,5676
2017-06-14T13:21:42.554Z,6080
2017-06-14T13:22:42.280Z,6124
2017-06-14T13:23:42.661Z,6152
2017-06-14T13:24:42.646Z,6164
2017-06-14T13:25:42.363Z,6152
2017-06-14T13:26:57.318Z,6144
2017-06-14T13:27:42.424Z,6160
2017-06-14T13:28:42.752Z,6180
2017-06-14T13:29:42.481Z,6180
2017-06-14T13:30:57.428Z,6220
2017-06-14T13:31:42.846Z,6228
2017-06-14T13:32:42.871Z,6268
2017-06-14T13:34:42.926Z,6344
2017-06-14T13:35:42.965Z,6312
2017-06-14T13:38:42.431Z,6300
2017-06-14T13:40:43.144Z,6376
2017-06-14T13:41:42.822Z,6412
2017-06-14T13:42:43.150Z,6476
2017-06-14T13:43:43.177Z,6532
2017-06-14T13:44:43.207Z,6564
2017-06-14T13:45:57.854Z,6424
2017-06-14T13:46:43.267Z,6496
2017-06-14T13:47:57.909Z,6436
2017-06-14T13:49:43.351Z,6324
2017-06-14T13:50:43.381Z,6328
2017-06-14T13:51:58.074Z,6344
2017-06-14T13:52:43.435Z,6336
2017-06-14T13:53:43.460Z,6356
2017-06-14T13:54:43.499Z,6332
2017-06-14T13:55:43.522Z,6360
2017-06-14T13:56:43.247Z,6372
2017-06-14T13:57:43.580Z,6292
2017-06-14T13:58:43.630Z,6220
2017-06-14T13:59:43.629Z,6184
2017-06-14T14:00:58.580Z,6104
2017-06-14T14:01:58.003Z,6060
2017-06-14T14:02:43.717Z,6064
2017-06-14T14:03:43.761Z,6020
2017-06-14T14:04:58.392Z,6044
2017-06-14T14:05:43.807Z,6044
2017-06-14T14:06:43.828Z,6016
2017-06-14T14:07:58.477Z,5984
2017-06-14T14:09:43.916Z,6016
2017-06-14T14:10:43.942Z,6060
2017-06-14T14:11:43.985Z,6080
2017-06-14T14:12:43.695Z,6108
2017-06-14T14:13:43.727Z,6116
2017-06-14T14:14:44.054Z,6208
2017-06-14T14:15:58.401Z,6260
2017-06-14T14:16:58.427Z,6180